sensor_id;sensor_type;location;lat;lon;timestamp;temperature;humidity
46508;DHT22;32223;53.654;10.014;2023-09-30T00:00:42;12.20;99.90
46508;DHT22;32223;53.654;10.014;2023-09-30T00:03:08;12.20;99.90
46508;DHT22;32223;53.654;10.014;2023-09-30T00:05:35;12.30;99.90
46508;DHT22;32223;53.654;10.014;2023-09-30T00:08:00;12.20;99.90
46508;DHT22;32223;53.654;10.014;2023-09-30T00:10:26;12.20;99.90
46508;DHT22;32223;53.654;10.014;2023-09-30T00:12:52;12.20;99.90
46508;DHT22;32223;53.654;10.014;2023-09-30T00:15:17;12.20;99.90
46508;DHT22;32223;53.654;10.014;2023-09-30T00:17:43;12.20;99.90
46508;DHT22;32223;53.654;10.014;2023-09-30T00:20:09;12.20;99.90
46508;DHT22;32223;53.654;10.014;2023-09-30T00:22:35;12.20;99.90
46508;DHT22;32223;53.654;10.014;2023-09-30T00:25:00;12.20;99.90
46508;DHT22;32223;53.654;10.014;2023-09-30T00:27:26;12.20;99.90
46508;DHT22;32223;53.654;10.014;2023-09-30T00:29:52;12.20;99.90
46508;DHT22;32223;53.654;10.014;2023-09-30T00:32:17;12.20;99.90
46508;DHT22;32223;53.654;10.014;2023-09-30T00:34:43;12.10;99.90
46508;DHT22;32223;53.654;10.014;2023-09-30T00:37:09;12.20;99.90
46508;DHT22;32223;53.654;10.014;2023-09-30T00:39:34;12.10;99.90
46508;DHT22;32223;53.654;10.014;2023-09-30T00:42:00;12.10;99.90
46508;DHT22;32223;53.654;10.014;2023-09-30T00:44:26;12.10;99.90
46508;DHT22;32223;53.654;10.014;2023-09-30T00:46:54;12.10;99.90
46508;DHT22;32223;53.654;10.014;2023-09-30T00:49:23;12.10;99.90
46508;DHT22;32223;53.654;10.014;2023-09-30T00:51:50;12.10;99.90
46508;DHT22;32223;53.654;10.014;2023-09-30T00:54:17;12.00;99.90
46508;DHT22;32223;53.654;10.014;2023-09-30T00:56:47;12.10;99.90
46508;DHT22;32223;53.654;10.014;2023-09-30T00:59:14;12.10;99.90
46508;DHT22;32223;53.654;10.014;2023-09-30T01:01:41;12.10;99.90
46508;DHT22;32223;53.654;10.014;2023-09-30T01:04:09;12.10;99.90
46508;DHT22;32223;53.654;10.014;2023-09-30T01:06:35;12.00;99.90
46508;DHT22;32223;53.654;10.014;2023-09-30T01:09:00;12.00;99.90
46508;DHT22;32223;53.654;10.014;2023-09-30T01:11:26;12.00;99.90
46508;DHT22;32223;53.654;10.014;2023-09-30T01:13:52;12.00;99.90
46508;DHT22;32223;53.654;10.014;2023-09-30T01:16:17;12.00;99.90
46508;DHT22;32223;53.654;10.014;2023-09-30T01:18:43;12.00;99.90
46508;DHT22;32223;53.654;10.014;2023-09-30T01:21:09;11.90;99.90
46508;DHT22;32223;53.654;10.014;2023-09-30T01:23:35;12.00;99.90
46508;DHT22;32223;53.654;10.014;2023-09-30T01:26:05;12.00;99.90
46508;DHT22;32223;53.654;10.014;2023-09-30T01:28:32;12.10;99.90
46508;DHT22;32223;53.654;10.014;2023-09-30T01:30:58;12.10;99.90
46508;DHT22;32223;53.654;10.014;2023-09-30T01:33:24;12.20;99.90
46508;DHT22;32223;53.654;10.014;2023-09-30T01:35:50;12.30;99.90
46508;DHT22;32223;53.654;10.014;2023-09-30T01:38:15;12.30;99.90
46508;DHT22;32223;53.654;10.014;2023-09-30T01:40:41;12.30;99.90
46508;DHT22;32223;53.654;10.014;2023-09-30T01:43:07;12.30;99.90
46508;DHT22;32223;53.654;10.014;2023-09-30T01:45:33;12.30;99.90
46508;DHT22;32223;53.654;10.014;2023-09-30T01:48:00;12.20;99.90
46508;DHT22;32223;53.654;10.014;2023-09-30T01:50:26;12.20;99.90
46508;DHT22;32223;53.654;10.014;2023-09-30T01:52:52;12.20;99.90
46508;DHT22;32223;53.654;10.014;2023-09-30T01:55:17;12.20;99.90
46508;DHT22;32223;53.654;10.014;2023-09-30T01:57:43;12.10;99.90
46508;DHT22;32223;53.654;10.014;2023-09-30T02:00:09;12.10;99.90
46508;DHT22;32223;53.654;10.014;2023-09-30T02:02:35;12.10;99.90
46508;DHT22;32223;53.654;10.014;2023-09-30T02:05:02;12.10;99.90
46508;DHT22;32223;53.654;10.014;2023-09-30T02:07:28;12.10;99.90
46508;DHT22;32223;53.654;10.014;2023-09-30T02:09:54;12.10;99.90
46508;DHT22;32223;53.654;10.014;2023-09-30T02:12:20;12.10;99.90
46508;DHT22;32223;53.654;10.014;2023-09-30T02:14:46;12.10;99.90
46508;DHT22;32223;53.654;10.014;2023-09-30T02:17:12;12.10;99.90
46508;DHT22;32223;53.654;10.014;2023-09-30T02:19:39;12.10;99.90
46508;DHT22;32223;53.654;10.014;2023-09-30T02:22:06;12.10;99.90
46508;DHT22;32223;53.654;10.014;2023-09-30T02:24:32;12.10;99.90
46508;DHT22;32223;53.654;10.014;2023-09-30T02:26:58;12.00;99.90
46508;DHT22;32223;53.654;10.014;2023-09-30T02:29:23;12.00;99.90
46508;DHT22;32223;53.654;10.014;2023-09-30T02:31:49;11.90;99.90
46508;DHT22;32223;53.654;10.014;2023-09-30T02:34:15;11.90;99.90
46508;DHT22;32223;53.654;10.014;2023-09-30T02:36:41;11.90;99.90
46508;DHT22;32223;53.654;10.014;2023-09-30T02:39:07;11.90;99.90
46508;DHT22;32223;53.654;10.014;2023-09-30T02:41:35;11.90;99.90
46508;DHT22;32223;53.654;10.014;2023-09-30T02:44:01;11.90;99.90
46508;DHT22;32223;53.654;10.014;2023-09-30T02:46:26;11.80;99.90
46508;DHT22;32223;53.654;10.014;2023-09-30T02:48:53;11.90;99.90
46508;DHT22;32223;53.654;10.014;2023-09-30T02:51:19;11.90;99.90
46508;DHT22;32223;53.654;10.014;2023-09-30T02:53:45;11.90;99.90
46508;DHT22;32223;53.654;10.014;2023-09-30T02:56:11;11.90;99.90
46508;DHT22;32223;53.654;10.014;2023-09-30T02:58:37;11.90;99.90
46508;DHT22;32223;53.654;10.014;2023-09-30T03:01:03;11.80;99.90
46508;DHT22;32223;53.654;10.014;2023-09-30T03:03:29;11.80;99.90
46508;DHT22;32223;53.654;10.014;2023-09-30T03:05:56;11.80;99.90
46508;DHT22;32223;53.654;10.014;2023-09-30T03:08:23;11.70;99.90
46508;DHT22;32223;53.654;10.014;2023-09-30T03:10:50;11.70;99.90
46508;DHT22;32223;53.654;10.014;2023-09-30T03:13:16;11.70;99.90
46508;DHT22;32223;53.654;10.014;2023-09-30T03:15:44;11.70;99.90
46508;DHT22;32223;53.654;10.014;2023-09-30T03:18:09;11.70;99.90
46508;DHT22;32223;53.654;10.014;2023-09-30T03:20:37;11.70;99.90
46508;DHT22;32223;53.654;10.014;2023-09-30T03:23:06;11.70;99.90
46508;DHT22;32223;53.654;10.014;2023-09-30T03:25:31;11.80;99.90
46508;DHT22;32223;53.654;10.014;2023-09-30T03:27:57;11.80;99.90
46508;DHT22;32223;53.654;10.014;2023-09-30T03:30:23;11.80;99.90
46508;DHT22;32223;53.654;10.014;2023-09-30T03:32:49;11.70;99.90
46508;DHT22;32223;53.654;10.014;2023-09-30T03:35:15;11.80;99.90
46508;DHT22;32223;53.654;10.014;2023-09-30T03:37:44;11.70;99.90
46508;DHT22;32223;53.654;10.014;2023-09-30T03:40:11;11.70;99.90
46508;DHT22;32223;53.654;10.014;2023-09-30T03:42:42;11.70;99.90
46508;DHT22;32223;53.654;10.014;2023-09-30T03:45:09;11.70;99.90
46508;DHT22;32223;53.654;10.014;2023-09-30T03:47:36;11.70;99.90
46508;DHT22;32223;53.654;10.014;2023-09-30T03:50:03;11.70;99.90
46508;DHT22;32223;53.654;10.014;2023-09-30T03:52:29;11.70;99.90
46508;DHT22;32223;53.654;10.014;2023-09-30T03:54:55;11.60;99.90
46508;DHT22;32223;53.654;10.014;2023-09-30T03:57:20;11.70;99.90
46508;DHT22;32223;53.654;10.014;2023-09-30T03:59:46;11.60;99.90
46508;DHT22;32223;53.654;10.014;2023-09-30T04:02:12;11.60;99.90
46508;DHT22;32223;53.654;10.014;2023-09-30T04:04:38;11.60;99.90
46508;DHT22;32223;53.654;10.014;2023-09-30T04:07:03;11.60;99.90
46508;DHT22;32223;53.654;10.014;2023-09-30T04:09:35;11.60;99.90
46508;DHT22;32223;53.654;10.014;2023-09-30T04:12:01;11.60;99.90
46508;DHT22;32223;53.654;10.014;2023-09-30T04:14:27;11.60;99.90
46508;DHT22;32223;53.654;10.014;2023-09-30T04:16:52;11.50;99.90
46508;DHT22;32223;53.654;10.014;2023-09-30T04:19:19;11.70;99.90
46508;DHT22;32223;53.654;10.014;2023-09-30T04:21:45;11.70;99.90
46508;DHT22;32223;53.654;10.014;2023-09-30T04:24:11;11.70;99.90
46508;DHT22;32223;53.654;10.014;2023-09-30T04:26:36;11.70;99.90
46508;DHT22;32223;53.654;10.014;2023-09-30T04:29:02;11.80;99.90
46508;DHT22;32223;53.654;10.014;2023-09-30T04:31:38;11.80;99.90
46508;DHT22;32223;53.654;10.014;2023-09-30T04:34:04;11.80;99.90
46508;DHT22;32223;53.654;10.014;2023-09-30T04:36:31;11.80;99.90
46508;DHT22;32223;53.654;10.014;2023-09-30T04:38:57;11.80;99.90
46508;DHT22;32223;53.654;10.014;2023-09-30T04:41:26;11.70;99.90
46508;DHT22;32223;53.654;10.014;2023-09-30T04:43:52;11.80;99.90
46508;DHT22;32223;53.654;10.014;2023-09-30T04:46:18;11.70;99.90
46508;DHT22;32223;53.654;10.014;2023-09-30T04:48:45;11.70;99.90
46508;DHT22;32223;53.654;10.014;2023-09-30T04:51:13;11.70;99.90
46508;DHT22;32223;53.654;10.014;2023-09-30T04:53:39;11.70;99.90
46508;DHT22;32223;53.654;10.014;2023-09-30T04:56:04;11.70;99.90
46508;DHT22;32223;53.654;10.014;2023-09-30T04:58:30;11.60;99.90
46508;DHT22;32223;53.654;10.014;2023-09-30T05:00:56;11.70;99.90
46508;DHT22;32223;53.654;10.014;2023-09-30T05:03:22;11.60;99.90
46508;DHT22;32223;53.654;10.014;2023-09-30T05:05:50;11.60;99.90
46508;DHT22;32223;53.654;10.014;2023-09-30T05:08:15;11.60;99.90
46508;DHT22;32223;53.654;10.014;2023-09-30T05:10:41;11.60;99.90
46508;DHT22;32223;53.654;10.014;2023-09-30T05:13:07;11.60;99.90
46508;DHT22;32223;53.654;10.014;2023-09-30T05:15:32;11.60;99.90
46508;DHT22;32223;53.654;10.014;2023-09-30T05:18:00;11.70;99.90
46508;DHT22;32223;53.654;10.014;2023-09-30T05:20:26;11.70;99.90
46508;DHT22;32223;53.654;10.014;2023-09-30T05:22:51;11.60;99.90
46508;DHT22;32223;53.654;10.014;2023-09-30T05:25:17;11.70;99.90
46508;DHT22;32223;53.654;10.014;2023-09-30T05:27:44;11.80;99.90
46508;DHT22;32223;53.654;10.014;2023-09-30T05:30:10;11.80;99.90
46508;DHT22;32223;53.654;10.014;2023-09-30T05:32:37;11.70;99.90
46508;DHT22;32223;53.654;10.014;2023-09-30T05:35:07;11.80;99.90
46508;DHT22;32223;53.654;10.014;2023-09-30T05:37:41;11.80;99.90
46508;DHT22;32223;53.654;10.014;2023-09-30T05:40:08;11.80;99.90
46508;DHT22;32223;53.654;10.014;2023-09-30T05:42:54;11.80;99.90
46508;DHT22;32223;53.654;10.014;2023-09-30T05:45:22;11.80;99.90
46508;DHT22;32223;53.654;10.014;2023-09-30T05:47:49;11.80;99.90
46508;DHT22;32223;53.654;10.014;2023-09-30T05:50:14;11.80;99.90
46508;DHT22;32223;53.654;10.014;2023-09-30T05:52:42;11.90;99.90
46508;DHT22;32223;53.654;10.014;2023-09-30T05:55:09;11.90;99.90
46508;DHT22;32223;53.654;10.014;2023-09-30T05:57:34;11.90;99.90
46508;DHT22;32223;53.654;10.014;2023-09-30T06:00:01;11.90;99.90
46508;DHT22;32223;53.654;10.014;2023-09-30T06:02:26;11.90;99.90
46508;DHT22;32223;53.654;10.014;2023-09-30T06:04:53;11.90;99.90
46508;DHT22;32223;53.654;10.014;2023-09-30T06:07:19;12.00;99.90
46508;DHT22;32223;53.654;10.014;2023-09-30T06:09:46;12.00;99.90
46508;DHT22;32223;53.654;10.014;2023-09-30T06:12:14;12.10;99.90
46508;DHT22;32223;53.654;10.014;2023-09-30T06:14:40;12.10;99.90
46508;DHT22;32223;53.654;10.014;2023-09-30T06:17:07;12.10;99.90
46508;DHT22;32223;53.654;10.014;2023-09-30T06:19:32;12.10;99.90
46508;DHT22;32223;53.654;10.014;2023-09-30T06:21:58;12.10;99.90
46508;DHT22;32223;53.654;10.014;2023-09-30T06:24:24;12.10;99.90
46508;DHT22;32223;53.654;10.014;2023-09-30T06:26:49;12.10;99.90
46508;DHT22;32223;53.654;10.014;2023-09-30T06:29:15;12.10;99.90
46508;DHT22;32223;53.654;10.014;2023-09-30T06:31:41;12.10;99.90
46508;DHT22;32223;53.654;10.014;2023-09-30T06:34:06;12.10;99.90
46508;DHT22;32223;53.654;10.014;2023-09-30T06:36:32;12.20;99.90
46508;DHT22;32223;53.654;10.014;2023-09-30T06:38:58;12.10;99.90
46508;DHT22;32223;53.654;10.014;2023-09-30T06:41:24;12.10;99.90
46508;DHT22;32223;53.654;10.014;2023-09-30T06:43:51;12.20;99.90
46508;DHT22;32223;53.654;10.014;2023-09-30T06:46:17;12.20;99.90
46508;DHT22;32223;53.654;10.014;2023-09-30T06:48:43;12.20;99.90
46508;DHT22;32223;53.654;10.014;2023-09-30T06:51:13;12.20;99.90
46508;DHT22;32223;53.654;10.014;2023-09-30T06:53:40;12.30;99.90
46508;DHT22;32223;53.654;10.014;2023-09-30T06:56:06;12.30;99.90
46508;DHT22;32223;53.654;10.014;2023-09-30T06:58:32;12.40;99.90
46508;DHT22;32223;53.654;10.014;2023-09-30T07:00:58;12.40;99.90
46508;DHT22;32223;53.654;10.014;2023-09-30T07:03:24;12.40;99.90
46508;DHT22;32223;53.654;10.014;2023-09-30T07:05:50;12.50;99.90
46508;DHT22;32223;53.654;10.014;2023-09-30T07:08:18;12.60;99.90
46508;DHT22;32223;53.654;10.014;2023-09-30T07:10:46;12.60;99.90
46508;DHT22;32223;53.654;10.014;2023-09-30T07:13:14;12.80;99.90
46508;DHT22;32223;53.654;10.014;2023-09-30T07:15:40;12.80;99.90
46508;DHT22;32223;53.654;10.014;2023-09-30T07:18:06;12.90;99.90
46508;DHT22;32223;53.654;10.014;2023-09-30T07:20:31;12.90;99.90
46508;DHT22;32223;53.654;10.014;2023-09-30T07:22:59;13.00;99.90
46508;DHT22;32223;53.654;10.014;2023-09-30T07:25:26;13.10;99.90
46508;DHT22;32223;53.654;10.014;2023-09-30T07:27:52;13.20;99.90
46508;DHT22;32223;53.654;10.014;2023-09-30T07:30:18;13.20;99.90
46508;DHT22;32223;53.654;10.014;2023-09-30T07:32:44;13.30;99.90
46508;DHT22;32223;53.654;10.014;2023-09-30T07:35:12;13.30;99.90
46508;DHT22;32223;53.654;10.014;2023-09-30T07:37:40;13.40;99.90
46508;DHT22;32223;53.654;10.014;2023-09-30T07:40:07;13.50;99.90
46508;DHT22;32223;53.654;10.014;2023-09-30T07:42:33;13.60;99.90
46508;DHT22;32223;53.654;10.014;2023-09-30T07:44:58;13.60;99.90
46508;DHT22;32223;53.654;10.014;2023-09-30T07:47:24;13.70;99.90
46508;DHT22;32223;53.654;10.014;2023-09-30T07:49:50;13.80;99.90
46508;DHT22;32223;53.654;10.014;2023-09-30T07:52:15;13.90;99.90
46508;DHT22;32223;53.654;10.014;2023-09-30T07:54:41;13.90;99.90
46508;DHT22;32223;53.654;10.014;2023-09-30T07:57:06;14.00;99.90
46508;DHT22;32223;53.654;10.014;2023-09-30T07:59:32;14.10;99.90
46508;DHT22;32223;53.654;10.014;2023-09-30T08:01:59;14.20;99.90
46508;DHT22;32223;53.654;10.014;2023-09-30T08:04:24;14.30;99.90
46508;DHT22;32223;53.654;10.014;2023-09-30T08:06:50;14.40;99.90
46508;DHT22;32223;53.654;10.014;2023-09-30T08:09:19;14.50;99.90
46508;DHT22;32223;53.654;10.014;2023-09-30T08:11:44;14.50;99.90
46508;DHT22;32223;53.654;10.014;2023-09-30T08:14:10;14.70;99.90
46508;DHT22;32223;53.654;10.014;2023-09-30T08:16:37;14.70;99.90
46508;DHT22;32223;53.654;10.014;2023-09-30T08:19:03;14.80;99.90
46508;DHT22;32223;53.654;10.014;2023-09-30T08:21:29;14.80;99.90
46508;DHT22;32223;53.654;10.014;2023-09-30T08:23:55;14.90;99.90
46508;DHT22;32223;53.654;10.014;2023-09-30T08:26:21;15.00;99.90
46508;DHT22;32223;53.654;10.014;2023-09-30T08:28:47;15.00;99.90
46508;DHT22;32223;53.654;10.014;2023-09-30T08:31:12;15.10;99.90
46508;DHT22;32223;53.654;10.014;2023-09-30T08:33:38;15.30;99.90
46508;DHT22;32223;53.654;10.014;2023-09-30T08:36:09;15.40;99.90
46508;DHT22;32223;53.654;10.014;2023-09-30T08:38:37;15.50;99.90
46508;DHT22;32223;53.654;10.014;2023-09-30T08:41:03;15.50;99.90
46508;DHT22;32223;53.654;10.014;2023-09-30T08:43:29;15.60;99.90
46508;DHT22;32223;53.654;10.014;2023-09-30T08:45:58;15.60;99.90
46508;DHT22;32223;53.654;10.014;2023-09-30T08:48:26;15.60;99.90
46508;DHT22;32223;53.654;10.014;2023-09-30T08:50:53;15.60;99.90
46508;DHT22;32223;53.654;10.014;2023-09-30T08:53:23;15.70;99.90
46508;DHT22;32223;53.654;10.014;2023-09-30T08:55:53;15.70;99.90
46508;DHT22;32223;53.654;10.014;2023-09-30T08:58:27;15.80;99.90
46508;DHT22;32223;53.654;10.014;2023-09-30T09:00:54;15.90;99.90
46508;DHT22;32223;53.654;10.014;2023-09-30T09:03:20;16.00;99.90
46508;DHT22;32223;53.654;10.014;2023-09-30T09:05:47;16.10;99.90
46508;DHT22;32223;53.654;10.014;2023-09-30T09:08:19;16.10;99.90
46508;DHT22;32223;53.654;10.014;2023-09-30T09:10:59;16.20;99.90
46508;DHT22;32223;53.654;10.014;2023-09-30T09:13:26;16.40;99.90
46508;DHT22;32223;53.654;10.014;2023-09-30T09:16:11;16.40;99.90
46508;DHT22;32223;53.654;10.014;2023-09-30T09:18:37;16.50;99.90
46508;DHT22;32223;53.654;10.014;2023-09-30T09:21:10;16.50;99.90
46508;DHT22;32223;53.654;10.014;2023-09-30T09:23:47;16.50;99.90
46508;DHT22;32223;53.654;10.014;2023-09-30T09:28:49;16.60;99.90
46508;DHT22;32223;53.654;10.014;2023-09-30T09:31:22;16.70;99.90
46508;DHT22;32223;53.654;10.014;2023-09-30T09:33:49;16.70;99.90
46508;DHT22;32223;53.654;10.014;2023-09-30T09:36:15;16.80;99.90
46508;DHT22;32223;53.654;10.014;2023-09-30T09:38:51;16.80;99.90
46508;DHT22;32223;53.654;10.014;2023-09-30T09:41:20;16.90;99.90
46508;DHT22;32223;53.654;10.014;2023-09-30T09:43:49;17.00;99.90
46508;DHT22;32223;53.654;10.014;2023-09-30T09:46:16;17.10;99.90
46508;DHT22;32223;53.654;10.014;2023-09-30T09:48:45;17.30;99.90
46508;DHT22;32223;53.654;10.014;2023-09-30T09:51:13;17.30;99.90
46508;DHT22;32223;53.654;10.014;2023-09-30T09:53:41;17.30;99.90
46508;DHT22;32223;53.654;10.014;2023-09-30T09:56:08;17.40;99.90
46508;DHT22;32223;53.654;10.014;2023-09-30T09:58:36;17.50;99.90
46508;DHT22;32223;53.654;10.014;2023-09-30T10:01:05;17.50;99.90
46508;DHT22;32223;53.654;10.014;2023-09-30T10:03:32;17.60;99.90
46508;DHT22;32223;53.654;10.014;2023-09-30T10:05:59;17.70;99.90
46508;DHT22;32223;53.654;10.014;2023-09-30T10:08:36;17.70;99.90
46508;DHT22;32223;53.654;10.014;2023-09-30T10:11:05;17.70;99.90
46508;DHT22;32223;53.654;10.014;2023-09-30T10:19:15;17.70;99.90
46508;DHT22;32223;53.654;10.014;2023-09-30T10:24:44;18.00;99.90
46508;DHT22;32223;53.654;10.014;2023-09-30T10:29:48;18.00;99.90
46508;DHT22;32223;53.654;10.014;2023-09-30T10:32:15;18.00;99.90
46508;DHT22;32223;53.654;10.014;2023-09-30T10:34:48;18.00;99.90
46508;DHT22;32223;53.654;10.014;2023-09-30T10:37:21;18.10;99.90
46508;DHT22;32223;53.654;10.014;2023-09-30T10:39:56;18.30;99.90
46508;DHT22;32223;53.654;10.014;2023-09-30T10:50:51;18.90;99.90
46508;DHT22;32223;53.654;10.014;2023-09-30T10:53:20;18.90;99.90
46508;DHT22;32223;53.654;10.014;2023-09-30T10:55:46;18.90;99.90
46508;DHT22;32223;53.654;10.014;2023-09-30T10:58:13;18.90;99.90
46508;DHT22;32223;53.654;10.014;2023-09-30T11:00:38;19.00;99.90
46508;DHT22;32223;53.654;10.014;2023-09-30T11:03:04;19.10;99.90
46508;DHT22;32223;53.654;10.014;2023-09-30T11:05:31;19.10;99.90
46508;DHT22;32223;53.654;10.014;2023-09-30T11:08:02;19.20;99.90
46508;DHT22;32223;53.654;10.014;2023-09-30T11:10:28;19.20;99.90
46508;DHT22;32223;53.654;10.014;2023-09-30T11:12:57;19.10;99.90
46508;DHT22;32223;53.654;10.014;2023-09-30T11:15:24;19.20;99.90
46508;DHT22;32223;53.654;10.014;2023-09-30T11:17:51;19.30;99.90
46508;DHT22;32223;53.654;10.014;2023-09-30T11:20:17;19.30;99.90
46508;DHT22;32223;53.654;10.014;2023-09-30T11:22:44;19.40;99.90
46508;DHT22;32223;53.654;10.014;2023-09-30T11:25:16;19.60;99.90
46508;DHT22;32223;53.654;10.014;2023-09-30T11:27:43;19.90;99.90
46508;DHT22;32223;53.654;10.014;2023-09-30T11:30:09;20.00;99.90
46508;DHT22;32223;53.654;10.014;2023-09-30T11:32:35;20.00;99.90
46508;DHT22;32223;53.654;10.014;2023-09-30T11:35:01;19.90;99.90
46508;DHT22;32223;53.654;10.014;2023-09-30T11:37:33;19.90;99.90
46508;DHT22;32223;53.654;10.014;2023-09-30T11:40:12;19.70;99.90
46508;DHT22;32223;53.654;10.014;2023-09-30T11:42:39;19.70;99.90
46508;DHT22;32223;53.654;10.014;2023-09-30T11:45:19;19.80;99.90
46508;DHT22;32223;53.654;10.014;2023-09-30T11:47:46;19.90;99.90
46508;DHT22;32223;53.654;10.014;2023-09-30T11:50:11;19.90;99.90
46508;DHT22;32223;53.654;10.014;2023-09-30T11:52:38;20.20;99.90
46508;DHT22;32223;53.654;10.014;2023-09-30T11:55:06;20.30;99.90
46508;DHT22;32223;53.654;10.014;2023-09-30T11:57:31;20.40;99.90
46508;DHT22;32223;53.654;10.014;2023-09-30T11:59:57;20.40;99.90
46508;DHT22;32223;53.654;10.014;2023-09-30T12:02:22;20.40;99.90
46508;DHT22;32223;53.654;10.014;2023-09-30T12:04:48;20.40;99.90
46508;DHT22;32223;53.654;10.014;2023-09-30T12:07:14;20.80;99.90
46508;DHT22;32223;53.654;10.014;2023-09-30T12:09:40;21.10;99.90
46508;DHT22;32223;53.654;10.014;2023-09-30T12:12:07;21.50;99.90
46508;DHT22;32223;53.654;10.014;2023-09-30T12:14:35;21.60;99.90
46508;DHT22;32223;53.654;10.014;2023-09-30T12:17:01;21.90;99.90
46508;DHT22;32223;53.654;10.014;2023-09-30T12:19:26;22.40;99.90
46508;DHT22;32223;53.654;10.014;2023-09-30T12:21:52;22.90;99.90
46508;DHT22;32223;53.654;10.014;2023-09-30T12:24:18;23.20;99.90
46508;DHT22;32223;53.654;10.014;2023-09-30T12:26:47;23.00;99.90
46508;DHT22;32223;53.654;10.014;2023-09-30T12:29:18;22.70;99.90
46508;DHT22;32223;53.654;10.014;2023-09-30T12:31:49;22.00;99.90
46508;DHT22;32223;53.654;10.014;2023-09-30T12:34:15;21.60;99.90
46508;DHT22;32223;53.654;10.014;2023-09-30T12:36:41;21.20;99.90
46508;DHT22;32223;53.654;10.014;2023-09-30T12:39:08;21.00;99.90
46508;DHT22;32223;53.654;10.014;2023-09-30T12:41:41;20.90;99.90
46508;DHT22;32223;53.654;10.014;2023-09-30T12:44:07;20.80;99.90
46508;DHT22;32223;53.654;10.014;2023-09-30T12:46:33;20.80;99.90
46508;DHT22;32223;53.654;10.014;2023-09-30T12:49:01;21.10;99.90
46508;DHT22;32223;53.654;10.014;2023-09-30T12:51:28;21.70;99.90
46508;DHT22;32223;53.654;10.014;2023-09-30T12:53:54;22.40;99.90
46508;DHT22;32223;53.654;10.014;2023-09-30T12:56:19;23.20;99.90
46508;DHT22;32223;53.654;10.014;2023-09-30T12:58:45;23.40;99.90
46508;DHT22;32223;53.654;10.014;2023-09-30T13:01:10;23.20;99.90
46508;DHT22;32223;53.654;10.014;2023-09-30T13:03:37;22.40;99.90
46508;DHT22;32223;53.654;10.014;2023-09-30T13:06:02;21.50;99.90
46508;DHT22;32223;53.654;10.014;2023-09-30T13:08:29;20.80;99.90
46508;DHT22;32223;53.654;10.014;2023-09-30T13:11:02;20.70;99.90
46508;DHT22;32223;53.654;10.014;2023-09-30T13:13:32;21.30;99.90
46508;DHT22;32223;53.654;10.014;2023-09-30T13:16:02;21.90;99.90
46508;DHT22;32223;53.654;10.014;2023-09-30T13:18:31;22.30;99.90
46508;DHT22;32223;53.654;10.014;2023-09-30T13:20:56;22.10;99.90
46508;DHT22;32223;53.654;10.014;2023-09-30T13:23:22;21.90;99.90
46508;DHT22;32223;53.654;10.014;2023-09-30T13:25:48;21.70;99.90
46508;DHT22;32223;53.654;10.014;2023-09-30T13:28:13;21.70;99.90
46508;DHT22;32223;53.654;10.014;2023-09-30T13:30:39;22.10;99.90
46508;DHT22;32223;53.654;10.014;2023-09-30T13:33:05;22.70;99.90
46508;DHT22;32223;53.654;10.014;2023-09-30T13:35:31;23.40;99.90
46508;DHT22;32223;53.654;10.014;2023-09-30T13:37:57;23.00;99.90
46508;DHT22;32223;53.654;10.014;2023-09-30T13:40:22;22.30;99.90
46508;DHT22;32223;53.654;10.014;2023-09-30T13:42:48;21.60;99.90
46508;DHT22;32223;53.654;10.014;2023-09-30T13:45:14;21.00;99.90
46508;DHT22;32223;53.654;10.014;2023-09-30T13:47:42;20.60;99.90
46508;DHT22;32223;53.654;10.014;2023-09-30T13:50:08;20.20;99.90
46508;DHT22;32223;53.654;10.014;2023-09-30T13:52:34;19.90;99.90
46508;DHT22;32223;53.654;10.014;2023-09-30T13:55:00;19.60;99.90
46508;DHT22;32223;53.654;10.014;2023-09-30T13:57:26;19.40;99.90
46508;DHT22;32223;53.654;10.014;2023-09-30T13:59:51;19.10;99.90
46508;DHT22;32223;53.654;10.014;2023-09-30T14:02:17;19.00;99.90
46508;DHT22;32223;53.654;10.014;2023-09-30T14:04:43;18.80;99.90
46508;DHT22;32223;53.654;10.014;2023-09-30T14:07:09;18.60;99.90
46508;DHT22;32223;53.654;10.014;2023-09-30T14:09:35;18.60;99.90
46508;DHT22;32223;53.654;10.014;2023-09-30T14:12:01;18.60;99.90
46508;DHT22;32223;53.654;10.014;2023-09-30T14:14:26;18.60;99.90
46508;DHT22;32223;53.654;10.014;2023-09-30T14:16:52;18.60;99.90
46508;DHT22;32223;53.654;10.014;2023-09-30T14:19:17;19.20;99.90
46508;DHT22;32223;53.654;10.014;2023-09-30T14:21:43;19.70;99.90
46508;DHT22;32223;53.654;10.014;2023-09-30T14:24:11;20.20;99.90
46508;DHT22;32223;53.654;10.014;2023-09-30T14:26:36;20.40;99.90
46508;DHT22;32223;53.654;10.014;2023-09-30T14:29:03;20.70;99.90
46508;DHT22;32223;53.654;10.014;2023-09-30T14:31:29;20.60;99.90
46508;DHT22;32223;53.654;10.014;2023-09-30T14:33:55;20.90;99.90
46508;DHT22;32223;53.654;10.014;2023-09-30T14:36:20;21.50;99.90
46508;DHT22;32223;53.654;10.014;2023-09-30T14:38:46;21.90;99.90
46508;DHT22;32223;53.654;10.014;2023-09-30T14:41:12;22.10;99.90
46508;DHT22;32223;53.654;10.014;2023-09-30T14:43:41;22.30;99.90
46508;DHT22;32223;53.654;10.014;2023-09-30T14:46:06;22.10;99.90
46508;DHT22;32223;53.654;10.014;2023-09-30T14:48:33;22.00;99.90
46508;DHT22;32223;53.654;10.014;2023-09-30T14:50:59;21.90;99.90
46508;DHT22;32223;53.654;10.014;2023-09-30T14:53:24;21.70;99.90
46508;DHT22;32223;53.654;10.014;2023-09-30T14:55:50;21.80;99.90
46508;DHT22;32223;53.654;10.014;2023-09-30T14:58:16;21.70;99.90
46508;DHT22;32223;53.654;10.014;2023-09-30T15:00:42;21.70;99.90
46508;DHT22;32223;53.654;10.014;2023-09-30T15:03:08;21.80;99.90
46508;DHT22;32223;53.654;10.014;2023-09-30T15:05:34;21.90;99.90
46508;DHT22;32223;53.654;10.014;2023-09-30T15:08:00;21.80;99.90
46508;DHT22;32223;53.654;10.014;2023-09-30T15:10:27;22.10;99.90
46508;DHT22;32223;53.654;10.014;2023-09-30T15:12:53;21.90;99.90
46508;DHT22;32223;53.654;10.014;2023-09-30T15:15:18;21.40;99.90
46508;DHT22;32223;53.654;10.014;2023-09-30T15:17:44;21.10;99.90
46508;DHT22;32223;53.654;10.014;2023-09-30T15:20:10;20.70;99.90
46508;DHT22;32223;53.654;10.014;2023-09-30T15:22:36;20.30;99.90
46508;DHT22;32223;53.654;10.014;2023-09-30T15:25:02;19.90;99.90
46508;DHT22;32223;53.654;10.014;2023-09-30T15:27:29;19.50;99.90
46508;DHT22;32223;53.654;10.014;2023-09-30T15:29:55;19.20;99.90
46508;DHT22;32223;53.654;10.014;2023-09-30T15:32:20;18.80;99.90
46508;DHT22;32223;53.654;10.014;2023-09-30T15:34:47;18.60;99.90